sensor_id;sensor_type;location;lat;lon;timestamp;pressure;altitude;pressure_sealevel;temperature;humidity
9257;BME280;4665;51.368;6.782;2022-09-27T00:01:00;99279.63;;;9.51;100.00
9257;BME280;4665;51.368;6.782;2022-09-27T00:03:27;99290.50;;;9.56;100.00
9257;BME280;4665;51.368;6.782;2022-09-27T00:06:07;99287.03;;;9.55;100.00
9257;BME280;4665;51.368;6.782;2022-09-27T00:08:34;99268.81;;;9.52;100.00
9257;BME280;4665;51.368;6.782;2022-09-27T00:11:01;99289.69;;;9.55;100.00
9257;BME280;4665;51.368;6.782;2022-09-27T00:13:27;99300.34;;;9.55;100.00
9257;BME280;4665;51.368;6.782;2022-09-27T00:15:57;99289.88;;;9.54;100.00
9257;BME280;4665;51.368;6.782;2022-09-27T00:18:25;99288.41;;;9.51;100.00
9257;BME280;4665;51.368;6.782;2022-09-27T00:20:51;99293.72;;;9.51;100.00
9257;BME280;4665;51.368;6.782;2022-09-27T00:23:17;99300.72;;;9.52;100.00
9257;BME280;4665;51.368;6.782;2022-09-27T00:25:56;99299.69;;;9.53;100.00
9257;BME280;4665;51.368;6.782;2022-09-27T00:28:22;99300.50;;;9.54;100.00
9257;BME280;4665;51.368;6.782;2022-09-27T00:30:48;99306.03;;;9.52;100.00
9257;BME280;4665;51.368;6.782;2022-09-27T00:33:13;99307.94;;;9.58;100.00
9257;BME280;4665;51.368;6.782;2022-09-27T00:35:39;99298.06;;;9.52;100.00
9257;BME280;4665;51.368;6.782;2022-09-27T00:38:05;99306.66;;;9.54;100.00
9257;BME280;4665;51.368;6.782;2022-09-27T00:40:31;99308.31;;;9.55;100.00
9257;BME280;4665;51.368;6.782;2022-09-27T00:42:57;99312.00;;;9.54;100.00
9257;BME280;4665;51.368;6.782;2022-09-27T00:45:22;99319.59;;;9.57;100.00
9257;BME280;4665;51.368;6.782;2022-09-27T00:48:00;99315.09;;;9.58;100.00
9257;BME280;4665;51.368;6.782;2022-09-27T00:50:38;99322.06;;;9.59;100.00
9257;BME280;4665;51.368;6.782;2022-09-27T00:53:15;99323.06;;;9.58;100.00
9257;BME280;4665;51.368;6.782;2022-09-27T00:55:53;99314.91;;;9.59;100.00
9257;BME280;4665;51.368;6.782;2022-09-27T00:58:23;99314.75;;;9.61;100.00
9257;BME280;4665;51.368;6.782;2022-09-27T01:00:53;99313.25;;;9.58;100.00
9257;BME280;4665;51.368;6.782;2022-09-27T01:03:36;99317.31;;;9.54;100.00
9257;BME280;4665;51.368;6.782;2022-09-27T01:06:05;99321.78;;;9.54;100.00
9257;BME280;4665;51.368;6.782;2022-09-27T01:08:33;99310.06;;;9.48;100.00
9257;BME280;4665;51.368;6.782;2022-09-27T01:22:17;99325.63;;;9.51;100.00
9257;BME280;4665;51.368;6.782;2022-09-27T01:30:42;99315.09;;;9.43;100.00
9257;BME280;4665;51.368;6.782;2022-09-27T01:33:36;99346.06;;;9.51;100.00
9257;BME280;4665;51.368;6.782;2022-09-27T01:44:12;99333.97;;;9.48;100.00
9257;BME280;4665;51.368;6.782;2022-09-27T01:46:50;99333.16;;;9.47;100.00
9257;BME280;4665;51.368;6.782;2022-09-27T01:49:23;99327.63;;;9.49;100.00
9257;BME280;4665;51.368;6.782;2022-09-27T01:51:55;99337.66;;;9.47;100.00
9257;BME280;4665;51.368;6.782;2022-09-27T01:54:49;99330.03;;;9.44;100.00
9257;BME280;4665;51.368;6.782;2022-09-27T01:57:17;99344.50;;;9.41;100.00
9257;BME280;4665;51.368;6.782;2022-09-27T01:59:58;99332.69;;;9.44;100.00
9257;BME280;4665;51.368;6.782;2022-09-27T02:02:27;99326.72;;;9.42;100.00
9257;BME280;4665;51.368;6.782;2022-09-27T02:05:06;99340.22;;;9.40;100.00
9257;BME280;4665;51.368;6.782;2022-09-27T02:08:01;99338.81;;;9.44;100.00
9257;BME280;4665;51.368;6.782;2022-09-27T02:10:34;99329.03;;;9.45;100.00
9257;BME280;4665;51.368;6.782;2022-09-27T02:13:24;99342.50;;;9.43;100.00
9257;BME280;4665;51.368;6.782;2022-09-27T02:21:18;99349.19;;;9.39;100.00
9257;BME280;4665;51.368;6.782;2022-09-27T02:23:49;99350.19;;;9.38;100.00
9257;BME280;4665;51.368;6.782;2022-09-27T02:26:24;99352.31;;;9.43;100.00
9257;BME280;4665;51.368;6.782;2022-09-27T02:31:35;99363.66;;;9.37;100.00
9257;BME280;4665;51.368;6.782;2022-09-27T02:34:09;99365.94;;;9.40;100.00
9257;BME280;4665;51.368;6.782;2022-09-27T02:36:36;99367.59;;;9.41;100.00
9257;BME280;4665;51.368;6.782;2022-09-27T02:39:03;99364.31;;;9.39;100.00
9257;BME280;4665;51.368;6.782;2022-09-27T02:41:28;99377.59;;;9.39;100.00
9257;BME280;4665;51.368;6.782;2022-09-27T02:44:02;99374.47;;;9.35;100.00
9257;BME280;4665;51.368;6.782;2022-09-27T02:52:19;99372.28;;;9.39;100.00
9257;BME280;4665;51.368;6.782;2022-09-27T02:55:12;99377.97;;;9.36;100.00
9257;BME280;4665;51.368;6.782;2022-09-27T03:00:23;99362.34;;;9.33;100.00
9257;BME280;4665;51.368;6.782;2022-09-27T03:03:08;99368.03;;;9.30;100.00
9257;BME280;4665;51.368;6.782;2022-09-27T03:06:23;99370.06;;;9.27;100.00
9257;BME280;4665;51.368;6.782;2022-09-27T03:08:29;99358.13;;;9.23;100.00
9257;BME280;4665;51.368;6.782;2022-09-27T03:10:55;99374.81;;;9.32;100.00
9257;BME280;4665;51.368;6.782;2022-09-27T03:13:20;99375.56;;;9.26;100.00
9257;BME280;4665;51.368;6.782;2022-09-27T03:15:46;99380.34;;;9.31;100.00
9257;BME280;4665;51.368;6.782;2022-09-27T03:18:11;99379.69;;;9.29;100.00
9257;BME280;4665;51.368;6.782;2022-09-27T03:20:37;99375.19;;;9.29;100.00
9257;BME280;4665;51.368;6.782;2022-09-27T03:23:03;99377.03;;;9.29;100.00
9257;BME280;4665;51.368;6.782;2022-09-27T03:25:28;99387.34;;;9.23;100.00
9257;BME280;4665;51.368;6.782;2022-09-27T03:27:54;99357.94;;;9.10;100.00
9257;BME280;4665;51.368;6.782;2022-09-27T03:30:19;99389.72;;;9.18;100.00
9257;BME280;4665;51.368;6.782;2022-09-27T03:32:45;99385.97;;;9.13;100.00
9257;BME280;4665;51.368;6.782;2022-09-27T03:35:11;99368.56;;;9.10;100.00
9257;BME280;4665;51.368;6.782;2022-09-27T03:40:09;99391.00;;;9.08;100.00
9257;BME280;4665;51.368;6.782;2022-09-27T03:42:35;99377.19;;;8.89;100.00
9257;BME280;4665;51.368;6.782;2022-09-27T03:45:00;99400.19;;;8.97;100.00
9257;BME280;4665;51.368;6.782;2022-09-27T03:47:26;99378.38;;;8.87;100.00
9257;BME280;4665;51.368;6.782;2022-09-27T03:49:52;99390.94;;;8.93;100.00
9257;BME280;4665;51.368;6.782;2022-09-27T03:52:18;99387.50;;;8.84;100.00
9257;BME280;4665;51.368;6.782;2022-09-27T03:54:44;99384.38;;;8.80;100.00
9257;BME280;4665;51.368;6.782;2022-09-27T03:57:09;99383.09;;;8.76;100.00
9257;BME280;4665;51.368;6.782;2022-09-27T03:59:36;99380.25;;;8.78;100.00
9257;BME280;4665;51.368;6.782;2022-09-27T04:02:01;99376.53;;;8.64;100.00
9257;BME280;4665;51.368;6.782;2022-09-27T04:04:27;99399.25;;;8.67;100.00
9257;BME280;4665;51.368;6.782;2022-09-27T04:06:53;99391.44;;;8.65;100.00
9257;BME280;4665;51.368;6.782;2022-09-27T04:09:18;99404.41;;;8.68;100.00
9257;BME280;4665;51.368;6.782;2022-09-27T04:11:44;99402.06;;;8.65;100.00
9257;BME280;4665;51.368;6.782;2022-09-27T04:14:09;99392.19;;;8.59;100.00
9257;BME280;4665;51.368;6.782;2022-09-27T04:16:37;99397.66;;;8.57;100.00
9257;BME280;4665;51.368;6.782;2022-09-27T04:19:03;99399.47;;;8.57;100.00
9257;BME280;4665;51.368;6.782;2022-09-27T04:21:28;99389.91;;;8.48;100.00
9257;BME280;4665;51.368;6.782;2022-09-27T04:23:54;99403.19;;;8.48;100.00
9257;BME280;4665;51.368;6.782;2022-09-27T04:26:19;99404.16;;;8.47;100.00
9257;BME280;4665;51.368;6.782;2022-09-27T04:28:45;99398.84;;;8.47;100.00
9257;BME280;4665;51.368;6.782;2022-09-27T04:31:11;99406.66;;;8.48;100.00
9257;BME280;4665;51.368;6.782;2022-09-27T04:33:37;99411.31;;;8.46;100.00
9257;BME280;4665;51.368;6.782;2022-09-27T04:36:02;99404.50;;;8.52;100.00
9257;BME280;4665;51.368;6.782;2022-09-27T04:38:46;99404.53;;;8.43;100.00
9257;BME280;4665;51.368;6.782;2022-09-27T04:41:13;99397.88;;;8.39;100.00
9257;BME280;4665;51.368;6.782;2022-09-27T04:43:39;99406.34;;;8.35;100.00
9257;BME280;4665;51.368;6.782;2022-09-27T04:46:05;99412.84;;;8.32;100.00
9257;BME280;4665;51.368;6.782;2022-09-27T04:48:30;99407.06;;;8.29;100.00
9257;BME280;4665;51.368;6.782;2022-09-27T04:51:00;99413.66;;;8.33;100.00
9257;BME280;4665;51.368;6.782;2022-09-27T04:53:29;99416.50;;;8.31;100.00
9257;BME280;4665;51.368;6.782;2022-09-27T04:55:55;99418.66;;;8.28;100.00
9257;BME280;4665;51.368;6.782;2022-09-27T04:58:22;99415.84;;;8.29;100.00
9257;BME280;4665;51.368;6.782;2022-09-27T05:00:48;99418.13;;;8.32;100.00
9257;BME280;4665;51.368;6.782;2022-09-27T05:03:17;99419.66;;;8.27;100.00
9257;BME280;4665;51.368;6.782;2022-09-27T05:05:44;99427.13;;;8.23;100.00
9257;BME280;4665;51.368;6.782;2022-09-27T05:08:09;99431.47;;;8.16;100.00
9257;BME280;4665;51.368;6.782;2022-09-27T05:10:35;99426.16;;;8.16;100.00
9257;BME280;4665;51.368;6.782;2022-09-27T05:13:01;99445.25;;;8.19;100.00
9257;BME280;4665;51.368;6.782;2022-09-27T05:15:26;99433.78;;;8.19;100.00
9257;BME280;4665;51.368;6.782;2022-09-27T05:17:52;99441.41;;;8.22;100.00
9257;BME280;4665;51.368;6.782;2022-09-27T05:20:18;99435.81;;;8.17;100.00
9257;BME280;4665;51.368;6.782;2022-09-27T05:22:44;99432.13;;;8.18;100.00
9257;BME280;4665;51.368;6.782;2022-09-27T05:25:10;99441.78;;;8.11;100.00
9257;BME280;4665;51.368;6.782;2022-09-27T05:27:35;99441.78;;;8.11;100.00
9257;BME280;4665;51.368;6.782;2022-09-27T05:30:01;99441.78;;;8.11;100.00
9257;BME280;4665;51.368;6.782;2022-09-27T05:32:27;99442.44;;;8.13;100.00
9257;BME280;4665;51.368;6.782;2022-09-27T05:34:53;99439.47;;;8.08;100.00
9257;BME280;4665;51.368;6.782;2022-09-27T05:37:19;99440.78;;;8.12;100.00
9257;BME280;4665;51.368;6.782;2022-09-27T05:39:45;99452.38;;;8.11;100.00
9257;BME280;4665;51.368;6.782;2022-09-27T05:42:11;99455.88;;;8.11;100.00
9257;BME280;4665;51.368;6.782;2022-09-27T05:44:40;99449.06;;;8.09;100.00
9257;BME280;4665;51.368;6.782;2022-09-27T05:47:06;99461.31;;;8.10;100.00
9257;BME280;4665;51.368;6.782;2022-09-27T05:49:32;99465.97;;;8.16;100.00
9257;BME280;4665;51.368;6.782;2022-09-27T05:51:58;99460.31;;;8.19;100.00
9257;BME280;4665;51.368;6.782;2022-09-27T05:54:24;99456.38;;;8.15;100.00
9257;BME280;4665;51.368;6.782;2022-09-27T05:56:53;99460.31;;;8.19;100.00
9257;BME280;4665;51.368;6.782;2022-09-27T05:59:23;99469.28;;;8.18;100.00
9257;BME280;4665;51.368;6.782;2022-09-27T06:01:49;99471.94;;;8.18;100.00
9257;BME280;4665;51.368;6.782;2022-09-27T06:04:16;99464.78;;;8.18;100.00
9257;BME280;4665;51.368;6.782;2022-09-27T06:06:42;99460.19;;;8.12;100.00
9257;BME280;4665;51.368;6.782;2022-09-27T06:09:12;99464.63;;;8.20;100.00
9257;BME280;4665;51.368;6.782;2022-09-27T06:11:38;99464.28;;;8.23;100.00
9257;BME280;4665;51.368;6.782;2022-09-27T06:14:03;99463.63;;;8.21;100.00
9257;BME280;4665;51.368;6.782;2022-09-27T06:16:29;99470.09;;;8.18;100.00
9257;BME280;4665;51.368;6.782;2022-09-27T06:18:55;99461.16;;;8.19;100.00
9257;BME280;4665;51.368;6.782;2022-09-27T06:21:20;99464.63;;;8.20;100.00
9257;BME280;4665;51.368;6.782;2022-09-27T06:23:46;99464.94;;;8.25;100.00
9257;BME280;4665;51.368;6.782;2022-09-27T06:26:12;99457.13;;;8.23;100.00
9257;BME280;4665;51.368;6.782;2022-09-27T06:28:38;99468.09;;;8.20;100.00
9257;BME280;4665;51.368;6.782;2022-09-27T06:31:05;99472.38;;;8.30;100.00
9257;BME280;4665;51.368;6.782;2022-09-27T06:33:32;99483.50;;;8.25;100.00
9257;BME280;4665;51.368;6.782;2022-09-27T06:36:05;99487.47;;;8.29;100.00
9257;BME280;4665;51.368;6.782;2022-09-27T06:38:31;99488.66;;;8.27;100.00
9257;BME280;4665;51.368;6.782;2022-09-27T06:41:03;99488.66;;;8.27;100.00
9257;BME280;4665;51.368;6.782;2022-09-27T06:43:29;99498.41;;;8.34;100.00
9257;BME280;4665;51.368;6.782;2022-09-27T06:46:01;99500.03;;;8.35;100.00
9257;BME280;4665;51.368;6.782;2022-09-27T06:48:29;99501.06;;;8.34;100.00
9257;BME280;4665;51.368;6.782;2022-09-27T06:50:55;99507.69;;;8.38;100.00
9257;BME280;4665;51.368;6.782;2022-09-27T06:53:22;99508.66;;;8.37;100.00
9257;BME280;4665;51.368;6.782;2022-09-27T06:55:47;99503.53;;;8.36;100.00
9257;BME280;4665;51.368;6.782;2022-09-27T06:58:13;99511.16;;;8.39;100.00
9257;BME280;4665;51.368;6.782;2022-09-27T07:00:57;99519.47;;;8.36;100.00
9257;BME280;4665;51.368;6.782;2022-09-27T07:03:23;99518.63;;;8.35;100.00
9257;BME280;4665;51.368;6.782;2022-09-27T07:05:58;99522.78;;;8.38;100.00
9257;BME280;4665;51.368;6.782;2022-09-27T07:08:24;99515.16;;;8.43;100.00
9257;BME280;4665;51.368;6.782;2022-09-27T07:10:55;99519.81;;;8.41;100.00
9257;BME280;4665;51.368;6.782;2022-09-27T07:13:21;99513.50;;;8.42;100.00
9257;BME280;4665;51.368;6.782;2022-09-27T07:15:47;99510.69;;;8.43;100.00
9257;BME280;4665;51.368;6.782;2022-09-27T07:18:13;99527.25;;;8.46;100.00
9257;BME280;4665;51.368;6.782;2022-09-27T07:20:39;99515.47;;;8.48;100.00
9257;BME280;4665;51.368;6.782;2022-09-27T07:23:05;99513.63;;;8.49;100.00
9257;BME280;4665;51.368;6.782;2022-09-27T07:25:31;99525.06;;;8.49;100.00
9257;BME280;4665;51.368;6.782;2022-09-27T07:28:06;99522.25;;;8.51;100.00
9257;BME280;4665;51.368;6.782;2022-09-27T07:30:33;99521.09;;;8.53;100.00
9257;BME280;4665;51.368;6.782;2022-09-27T07:33:01;99526.59;;;8.52;100.00
9257;BME280;4665;51.368;6.782;2022-09-27T07:35:27;99531.69;;;8.53;100.00
9257;BME280;4665;51.368;6.782;2022-09-27T07:37:54;99528.56;;;8.50;100.00
9257;BME280;4665;51.368;6.782;2022-09-27T07:40:21;99533.03;;;8.49;100.00
9257;BME280;4665;51.368;6.782;2022-09-27T07:42:46;99533.38;;;8.54;100.00
9257;BME280;4665;51.368;6.782;2022-09-27T07:45:12;99535.50;;;8.59;100.00
9257;BME280;4665;51.368;6.782;2022-09-27T07:47:39;99543.44;;;8.67;100.00
9257;BME280;4665;51.368;6.782;2022-09-27T07:50:08;99538.13;;;8.67;100.00
9257;BME280;4665;51.368;6.782;2022-09-27T07:52:40;99538.47;;;8.64;100.00
9257;BME280;4665;51.368;6.782;2022-09-27T07:55:07;99546.09;;;8.67;100.00
9257;BME280;4665;51.368;6.782;2022-09-27T07:57:33;99550.72;;;8.73;100.00
9257;BME280;4665;51.368;6.782;2022-09-27T07:59:59;99548.22;;;8.72;100.00
9257;BME280;4665;51.368;6.782;2022-09-27T08:02:24;99569.63;;;8.70;100.00
9257;BME280;4665;51.368;6.782;2022-09-27T08:04:50;99558.69;;;8.73;100.00
9257;BME280;4665;51.368;6.782;2022-09-27T08:07:16;99560.97;;;8.76;100.00
9257;BME280;4665;51.368;6.782;2022-09-27T08:09:42;99562.97;;;8.82;100.00
9257;BME280;4665;51.368;6.782;2022-09-27T08:12:07;99571.91;;;8.81;100.00
9257;BME280;4665;51.368;6.782;2022-09-27T08:14:34;99580.53;;;8.83;100.00
9257;BME280;4665;51.368;6.782;2022-09-27T08:16:59;99571.44;;;8.78;100.00
9257;BME280;4665;51.368;6.782;2022-09-27T08:19:25;99579.72;;;8.83;100.00
9257;BME280;4665;51.368;6.782;2022-09-27T08:21:52;99565.94;;;8.79;100.00
9257;BME280;4665;51.368;6.782;2022-09-27T08:24:19;99584.16;;;8.91;100.00
9257;BME280;4665;51.368;6.782;2022-09-27T08:26:45;99589.50;;;8.82;100.00
9257;BME280;4665;51.368;6.782;2022-09-27T08:29:10;99577.88;;;8.83;100.00
9257;BME280;4665;51.368;6.782;2022-09-27T08:31:37;99579.56;;;8.76;100.00
9257;BME280;4665;51.368;6.782;2022-09-27T08:34:02;99588.19;;;8.87;100.00
9257;BME280;4665;51.368;6.782;2022-09-27T08:36:29;99588.47;;;8.92;100.00
9257;BME280;4665;51.368;6.782;2022-09-27T08:38:56;99594.75;;;8.99;100.00
9257;BME280;4665;51.368;6.782;2022-09-27T08:44:23;99596.06;;;9.03;100.00
9257;BME280;4665;51.368;6.782;2022-09-27T08:49:51;99588.25;;;9.01;100.00
9257;BME280;4665;51.368;6.782;2022-09-27T08:52:22;99589.44;;;8.99;100.00
9257;BME280;4665;51.368;6.782;2022-09-27T08:54:52;99605.72;;;8.96;100.00
9257;BME280;4665;51.368;6.782;2022-09-27T08:57:20;99586.81;;;8.91;100.00
9257;BME280;4665;51.368;6.782;2022-09-27T09:00:03;99587.47;;;8.93;100.00
9257;BME280;4665;51.368;6.782;2022-09-27T09:02:30;99601.91;;;8.90;100.00
9257;BME280;4665;51.368;6.782;2022-09-27T09:05:18;99596.78;;;8.89;100.00
9257;BME280;4665;51.368;6.782;2022-09-27T09:13:33;99609.94;;;8.82;100.00
9257;BME280;4665;51.368;6.782;2022-09-27T09:26:38;99598.31;;;8.83;100.00
9257;BME280;4665;51.368;6.782;2022-09-27T09:34:39;99592.78;;;8.93;100.00
9257;BME280;4665;51.368;6.782;2022-09-27T09:37:25;99598.59;;;8.96;100.00
9257;BME280;4665;51.368;6.782;2022-09-27T09:39:57;99599.72;;;9.02;100.00
9257;BME280;4665;51.368;6.782;2022-09-27T09:44:59;99591.06;;;9.08;100.00
9257;BME280;4665;51.368;6.782;2022-09-27T09:50:13;99598.81;;;9.18;100.00
9257;BME280;4665;51.368;6.782;2022-09-27T09:52:44;99603.25;;;9.25;100.00
9257;BME280;4665;51.368;6.782;2022-09-27T09:55:19;99601.31;;;9.19;100.00
9257;BME280;4665;51.368;6.782;2022-09-27T10:00:29;99593.28;;;9.27;100.00
9257;BME280;4665;51.368;6.782;2022-09-27T10:02:58;99583.00;;;9.24;100.00
9257;BME280;4665;51.368;6.782;2022-09-27T10:05:25;99587.72;;;9.37;100.00
9257;BME280;4665;51.368;6.782;2022-09-27T10:07:53;99579.59;;;9.39;100.00
9257;BME280;4665;51.368;6.782;2022-09-27T10:10:22;99571.25;;;9.42;100.00
9257;BME280;4665;51.368;6.782;2022-09-27T10:12:48;99579.84;;;9.52;100.00
9257;BME280;4665;51.368;6.782;2022-09-27T10:15:20;99569.19;;;9.52;100.00
9257;BME280;4665;51.368;6.782;2022-09-27T10:17:51;99568.84;;;9.55;100.00
9257;BME280;4665;51.368;6.782;2022-09-27T10:22:53;99573.09;;;9.64;100.00
9257;BME280;4665;51.368;6.782;2022-09-27T10:25:20;99567.91;;;9.71;100.00
9257;BME280;4665;51.368;6.782;2022-09-27T10:27:48;99569.06;;;9.68;100.00
9257;BME280;4665;51.368;6.782;2022-09-27T10:32:50;99573.44;;;9.84;100.00
9257;BME280;4665;51.368;6.782;2022-09-27T10:38:30;99571.59;;;9.85;100.00
9257;BME280;4665;51.368;6.782;2022-09-27T10:41:14;99582.91;;;9.87;100.00
9257;BME280;4665;51.368;6.782;2022-09-27T10:43:40;99576.81;;;9.78;100.00
9257;BME280;4665;51.368;6.782;2022-09-27T10:46:12;99576.31;;;9.75;100.00
9257;BME280;4665;51.368;6.782;2022-09-27T10:48:40;99573.66;;;9.75;100.00
9257;BME280;4665;51.368;6.782;2022-09-27T10:51:22;99580.81;;;9.74;100.00
9257;BME280;4665;51.368;6.782;2022-09-27T10:53:49;99566.25;;;9.70;100.00
9257;BME280;4665;51.368;6.782;2022-09-27T10:56:30;99559.75;;;9.73;100.00
9257;BME280;4665;51.368;6.782;2022-09-27T10:58:57;99567.06;;;9.71;100.00
9257;BME280;4665;51.368;6.782;2022-09-27T11:01:39;99566.59;;;9.67;100.00
9257;BME280;4665;51.368;6.782;2022-09-27T11:04:05;99575.69;;;9.73;100.00
9257;BME280;4665;51.368;6.782;2022-09-27T11:06:33;99577.34;;;9.74;100.00
9257;BME280;4665;51.368;6.782;2022-09-27T11:09:28;99568.06;;;9.69;100.00
9257;BME280;4665;51.368;6.782;2022-09-27T11:12:13;99576.53;;;9.73;100.00
9257;BME280;4665;51.368;6.782;2022-09-27T11:14:39;99568.81;;;9.78;100.00
9257;BME280;4665;51.368;6.782;2022-09-27T11:20:26;99570.91;;;9.91;100.00
9257;BME280;4665;51.368;6.782;2022-09-27T11:23:11;99574.66;;;9.97;100.00
9257;BME280;4665;51.368;6.782;2022-09-27T11:31:07;99559.34;;;9.99;100.00
9257;BME280;4665;51.368;6.782;2022-09-27T11:34:00;99553.38;;;9.97;100.00
9257;BME280;4665;51.368;6.782;2022-09-27T11:44:53;99554.75;;;10.45;100.00
9257;BME280;4665;51.368;6.782;2022-09-27T11:53:30;99547.41;;;10.47;100.00
9257;BME280;4665;51.368;6.782;2022-09-27T11:59:30;99537.97;;;10.45;100.00
9257;BME280;4665;51.368;6.782;2022-09-27T12:11:19;99536.50;;;10.42;100.00
9257;BME280;4665;51.368;6.782;2022-09-27T12:14:01;99536.13;;;10.30;100.00
9257;BME280;4665;51.368;6.782;2022-09-27T12:16:29;99536.81;;;10.24;100.00
9257;BME280;4665;51.368;6.782;2022-09-27T12:18:56;99542.59;;;10.28;100.00
9257;BME280;4665;51.368;6.782;2022-09-27T12:21:24;99536.97;;;10.08;100.00
9257;BME280;4665;51.368;6.782;2022-09-27T12:23:53;99540.63;;;10.07;100.00
9257;BME280;4665;51.368;6.782;2022-09-27T12:26:41;99547.34;;;10.03;100.00
9257;BME280;4665;51.368;6.782;2022-09-27T12:29:31;99545.13;;;10.06;100.00
9257;BME280;4665;51.368;6.782;2022-09-27T12:38:26;99551.16;;;9.85;100.00
9257;BME280;4665;51.368;6.782;2022-09-27T12:40:55;99551.44;;;9.67;100.00
9257;BME280;4665;51.368;6.782;2022-09-27T12:43:41;99558.84;;;9.57;100.00
9257;BME280;4665;51.368;6.782;2022-09-27T12:49:15;99553.13;;;9.45;100.00
9257;BME280;4665;51.368;6.782;2022-09-27T12:51:48;99551.59;;;9.51;100.00
9257;BME280;4665;51.368;6.782;2022-09-27T13:00:44;99557.66;;;9.37;100.00
9257;BME280;4665;51.368;6.782;2022-09-27T13:06:48;99566.25;;;9.47;100.00
9257;BME280;4665;51.368;6.782;2022-09-27T13:12:05;99561.16;;;9.60;100.00
9257;BME280;4665;51.368;6.782;2022-09-27T13:14:43;99564.03;;;9.74;100.00
9257;BME280;4665;51.368;6.782;2022-09-27T13:22:59;99559.00;;;9.79;100.00
9257;BME280;4665;51.368;6.782;2022-09-27T13:30:54;99558.59;;;9.90;100.00
9257;BME280;4665;51.368;6.782;2022-09-27T13:41:54;99555.31;;;10.03;100.00
9257;BME280;4665;51.368;6.782;2022-09-27T13:53:06;99549.19;;;10.17;100.00
9257;BME280;4665;51.368;6.782;2022-09-27T14:01:32;99540.63;;;10.07;100.00
9257;BME280;4665;51.368;6.782;2022-09-27T14:04:19;99542.56;;;10.13;100.00
9257;BME280;4665;51.368;6.782;2022-09-27T14:07:09;99544.41;;;10.13;100.00
9257;BME280;4665;51.368;6.782;2022-09-27T14:09:39;99541.38;;;10.16;100.00
9257;BME280;4665;51.368;6.782;2022-09-27T14:12:16;99549.19;;;10.17;100.00
9257;BME280;4665;51.368;6.782;2022-09-27T14:14:44;99547.34;;;10.18;100.00
9257;BME280;4665;51.368;6.782;2022-09-27T14:17:11;99539.47;;;10.24;100.00
9257;BME280;4665;51.368;6.782;2022-09-27T14:19:42;99540.94;;;10.27;100.00
9257;BME280;4665;51.368;6.782;2022-09-27T14:22:12;99554.22;;;10.35;100.00
9257;BME280;4665;51.368;6.782;2022-09-27T14:29:53;99541.88;;;10.79;100.00
9257;BME280;4665;51.368;6.782;2022-09-27T14:32:28;99554.38;;;10.78;100.00
9257;BME280;4665;51.368;6.782;2022-09-27T14:35:15;99550.16;;;10.69;95.33
9257;BME280;4665;51.368;6.782;2022-09-27T14:38:02;99556.03;;;10.64;97.28
9257;BME280;4665;51.368;6.782;2022-09-27T14:40:28;99553.91;;;10.60;99.20
9257;BME280;4665;51.368;6.782;2022-09-27T14:42:56;99556.19;;;10.63;97.07
9257;BME280;4665;51.368;6.782;2022-09-27T14:45:35;99557.59;;;10.59;96.94
9257;BME280;4665;51.368;6.782;2022-09-27T14:48:26;99561.81;;;10.53;97.33
9257;BME280;4665;51.368;6.782;2022-09-27T14:51:19;99558.97;;;10.55;96.28
9257;BME280;4665;51.368;6.782;2022-09-27T14:53:54;99557.50;;;10.52;96.38
9257;BME280;4665;51.368;6.782;2022-09-27T14:56:27;99558.06;;;10.47;97.05
9257;BME280;4665;51.368;6.782;2022-09-27T14:59:01;99553.38;;;10.49;97.67
9257;BME280;4665;51.368;6.782;2022-09-27T15:01:27;99556.69;;;10.51;96.83
9257;BME280;4665;51.368;6.782;2022-09-27T15:03:55;99558.97;;;10.55;96.42
9257;BME280;4665;51.368;6.782;2022-09-27T15:06:21;99560.28;;;10.59;98.21
9257;BME280;4665;51.368;6.782;2022-09-27T15:08:49;99566.78;;;10.56;94.13
9257;BME280;4665;51.368;6.782;2022-09-27T15:11:33;99568.81;;;10.54;95.19
9257;BME280;4665;51.368;6.782;2022-09-27T15:14:00;99572.28;;;10.55;98.57
9257;BME280;4665;51.368;6.782;2022-09-27T15:16:29;99560.72;;;10.47;94.07
9257;BME280;4665;51.368;6.782;2022-09-27T15:19:22;99565.88;;;10.49;96.00
9257;BME280;4665;51.368;6.782;2022-09-27T15:21:46;99562.75;;;10.45;95.56
9257;BME280;4665;51.368;6.782;2022-09-27T15:24:38;99571.91;;;10.43;96.05
9257;BME280;4665;51.368;6.782;2022-09-27T15:27:22;99560.44;;;10.42;96.20
9257;BME280;4665;51.368;6.782;2022-09-27T15:29:54;99562.47;;;10.40;95.17
9257;BME280;4665;51.368;6.782;2022-09-27T15:32:24;99567.78;;;10.40;95.15
9257;BME280;4665;51.368;6.782;2022-09-27T15:34:52;99559.97;;;10.39;98.51
9257;BME280;4665;51.368;6.782;2022-09-27T15:40:31;99565.41;;;10.30;100.00
9257;BME280;4665;51.368;6.782;2022-09-27T15:47:53;99565.56;;;9.91;100.00
9257;BME280;4665;51.368;6.782;2022-09-27T15:50:39;99561.03;;;9.77;100.00
9257;BME280;4665;51.368;6.782;2022-09-27T15:53:07;99562.56;;;9.71;100.00
9257;BME280;4665;51.368;6.782;2022-09-27T15:55:39;99558.97;;;9.64;100.00
9257;BME280;4665;51.368;6.782;2022-09-27T15:58:13;99553.06;;;9.54;100.00
9257;BME280;4665;51.368;6.782;2022-09-27T16:00:51;99558.91;;;9.49;100.00
9257;BME280;4665;51.368;6.782;2022-09-27T16:03:31;99552.66;;;9.42;100.00
9257;BME280;4665;51.368;6.782;2022-09-27T16:05:59;99555.50;;;9.40;100.00
9257;BME280;4665;51.368;6.782;2022-09-27T16:08:25;99551.81;;;9.41;100.00
9257;BME280;4665;51.368;6.782;2022-09-27T16:10:53;99542.44;;;9.31;100.00
9257;BME280;4665;51.368;6.782;2022-09-27T16:13:22;99552.75;;;9.25;100.00
9257;BME280;4665;51.368;6.782;2022-09-27T16:15:48;99557.91;;;9.27;100.00
9257;BME280;4665;51.368;6.782;2022-09-27T16:18:14;99554.75;;;9.23;100.00
9257;BME280;4665;51.368;6.782;2022-09-27T16:20:40;99553.63;;;9.18;100.00
9257;BME280;4665;51.368;6.782;2022-09-27T16:23:05;99550.16;;;9.17;100.00
9257;BME280;4665;51.368;6.782;2022-09-27T16:25:31;99544.72;;;9.11;100.00
9257;BME280;4665;51.368;6.782;2022-09-27T16:27:58;99542.22;;;9.09;100.00
9257;BME280;4665;51.368;6.782;2022-09-27T16:30:25;99551.38;;;9.06;100.00
9257;BME280;4665;51.368;6.782;2022-09-27T16:32:51;99547.38;;;9.11;100.00
9257;BME280;4665;51.368;6.782;2022-09-27T16:35:19;99542.72;;;9.13;100.00
9257;BME280;4665;51.368;6.782;2022-09-27T16:37:45;99544.88;;;9.09;100.00
9257;BME280;4665;51.368;6.782;2022-09-27T16:40:11;99540.06;;;9.13;100.00
9257;BME280;4665;51.368;6.782;2022-09-27T16:42:38;99542.06;;;9.11;100.00
9257;BME280;4665;51.368;6.782;2022-09-27T16:45:06;99542.72;;;9.13;100.00
9257;BME280;4665;51.368;6.782;2022-09-27T16:47:32;99532.78;;;9.06;100.00
9257;BME280;4665;51.368;6.782;2022-09-27T16:49:57;99546.56;;;9.10;100.00